Mohac — 3FOX4 — position and weather

sailwx.info

Track history (hours):
 
Tides and Currents Weather Stations Pressure Air Temp Water Temp Dewpoint Dewpoint Depression Visibility Wind Speed Wind Dir Waves Ship Positions

Mohac

Last reported at 2018-Jun-24 13:54 UTC. Time now 2018-Jun-25 11:25 UTC.
Position N 46°14' E 030°56'.

Length 135 m; draft 8.8 m.

Type: Cargo ship. MMSI: 372105000.

Date/timePositionNaut miles runAvg speedWind from/ knotsBaromVisibWave heightAir tempDewpointWater temp
2018-Jun-24 13:54N 46°14' E 030°56'410.1
2018-Jun-24 13:28N 46°18' E 030°55'511.3
2018-Jun-24 13:00N 46°23' E 030°55'611.3
2018-Jun-24 12:30N 46°29' E 030°55'5 9.2
2018-Jun-24 12:00N 46°33' E 030°59'4 8.5
2018-Jun-24 11:30N 46°34' E 031°04'510.2
2018-Jun-24 11:00N 46°35' E 031°12'20 8.7
2018-Jun-24 08:39N 46°36' E 031°42'2 8.8
2018-Jun-24 08:28N 46°36' E 031°44'4 8.7
2018-Jun-24 08:00N 46°36' E 031°50'4 8.7
2018-Jun-24 07:30N 46°39' E 031°55'4 8.7
2018-Jun-24 07:00N 46°43' E 031°56'4 8.0
2018-Jun-24 06:30N 46°46' E 031°53'4 8.1
2018-Jun-24 06:00N 46°50' E 031°56'5 9.1
2018-Jun-24 05:30N 46°54' E 032°00'3 5.9
2018-Jun-24 05:00N 46°56' E 032°01'0 0.2
2018-Jun-24 04:30N 46°57' E 032°01'0 0.0
2018-Jun-24 03:58N 46°57' E 032°01'0 0.0
2018-Jun-24 03:28N 46°57' E 032°01'0 0.0
2018-Jun-24 02:58N 46°57' E 032°01'0 0.0
2018-Jun-24 02:28N 46°57' E 032°01'0 0.0
2018-Jun-24 01:58N 46°57' E 032°01'0 0.0
2018-Jun-24 01:28N 46°57' E 032°01'0 0.0
2018-Jun-24 00:58N 46°57' E 032°01'0 0.0
2018-Jun-24 00:31N 46°57' E 032°01'0 0.0
2018-Jun-23 23:59N 46°57' E 032°01'0 0.0
2018-Jun-23 23:29N 46°57' E 032°01'0 0.0
2018-Jun-23 22:59N 46°57' E 032°01'0 0.0
2018-Jun-23 22:29N 46°57' E 032°01'0 0.0
2018-Jun-23 21:59N 46°57' E 032°01'0 0.0
2018-Jun-23 21:29N 46°57' E 032°01'0 0.0
2018-Jun-23 20:59N 46°57' E 032°01'0 0.0
2018-Jun-23 20:29N 46°57' E 032°01'0 0.0
2018-Jun-23 19:59N 46°57' E 032°01'0 0.0
2018-Jun-23 19:23N 46°57' E 032°01'0 0.0
2018-Jun-23 18:59N 46°57' E 032°01'0 0.0
2018-Jun-23 18:29N 46°57' E 032°01'0 0.0
2018-Jun-23 17:59N 46°57' E 032°01'0 0.0
2018-Jun-23 17:23N 46°57' E 032°01'0 0.0
2018-Jun-23 16:59N 46°57' E 032°01'0 0.0
2018-Jun-23 16:29N 46°57' E 032°01'0 0.0
2018-Jun-23 15:59N 46°57' E 032°01'0 0.0
2018-Jun-23 15:29N 46°57' E 032°01'0 0.0
2018-Jun-23 14:59N 46°57' E 032°01'0 0.0
2018-Jun-23 14:29N 46°57' E 032°01'0 0.0
2018-Jun-23 13:59N 46°57' E 032°01'0 0.0
2018-Jun-23 13:29N 46°57' E 032°01'0 0.0
2018-Jun-23 12:59N 46°57' E 032°01'0 0.0
2018-Jun-23 12:29N 46°57' E 032°01'0 0.0
2018-Jun-23 11:59N 46°57' E 032°01'0 0.0
2018-Jun-23 11:29N 46°57' E 032°01'0 0.0
2018-Jun-23 10:59N 46°57' E 032°01'0 0.0
2018-Jun-23 10:29N 46°57' E 032°01'0 0.0
2018-Jun-23 09:59N 46°57' E 032°01'0 0.0
2018-Jun-23 09:29N 46°57' E 032°01'0 0.0
2018-Jun-23 08:59N 46°57' E 032°01'0 0.0
2018-Jun-23 08:29N 46°57' E 032°01'0 0.0
2018-Jun-23 07:59N 46°57' E 032°01'0 0.0
2018-Jun-23 07:29N 46°57' E 032°01'0 0.0
2018-Jun-23 06:59N 46°57' E 032°01'0 0.0
2018-Jun-23 06:29N 46°57' E 032°01'0 0.0
2018-Jun-23 05:59N 46°57' E 032°01'0 0.0
2018-Jun-23 05:29N 46°57' E 032°01'0 0.0
2018-Jun-23 04:59N 46°57' E 032°01'0 0.0
2018-Jun-23 04:31N 46°57' E 032°01'0 0.0
2018-Jun-23 03:58N 46°57' E 032°01'0 0.0
2018-Jun-23 03:28N 46°57' E 032°01'0 0.0
2018-Jun-23 03:00N 46°57' E 032°01'0 0.0
2018-Jun-23 02:30N 46°57' E 032°01'0 0.0
2018-Jun-23 02:00N 46°57' E 032°01'0 0.0
2018-Jun-23 01:30N 46°57' E 032°01'0 0.0
2018-Jun-23 01:00N 46°57' E 032°01'0 0.0
2018-Jun-23 00:30N 46°57' E 032°01'0 0.0
2018-Jun-23 00:00N 46°57' E 032°01'0 0.0
2018-Jun-22 23:31N 46°57' E 032°01'0 0.0
2018-Jun-22 23:00N 46°57' E 032°01'0 0.0
2018-Jun-22 22:29N 46°57' E 032°01'0 0.0
2018-Jun-22 21:59N 46°57' E 032°01'0 0.0
2018-Jun-22 21:29N 46°57' E 032°01'0 0.0
2018-Jun-22 20:58N 46°57' E 032°01'0 0.0
2018-Jun-22 20:28N 46°57' E 032°01'0 0.0
2018-Jun-22 19:59N 46°57' E 032°01'0 0.0
2018-Jun-22 19:28N 46°57' E 032°01'0 0.0
2018-Jun-22 19:00N 46°57' E 032°01'0 0.0
2018-Jun-22 18:30N 46°57' E 032°01'0 0.0
2018-Jun-22 18:00N 46°57' E 032°01'0 0.0
2018-Jun-22 17:30N 46°57' E 032°01'0 0.0
2018-Jun-22 17:01N 46°57' E 032°01'0 0.0
2018-Jun-22 16:29N 46°57' E 032°01'0 0.0
2018-Jun-22 15:59N 46°57' E 032°01'0 0.0
2018-Jun-22 15:29N 46°57' E 032°01'0 0.0
2018-Jun-22 14:59N 46°57' E 032°01'0 0.0
2018-Jun-22 14:28N 46°57' E 032°01'0 0.0
2018-Jun-22 13:59N 46°57' E 032°01'0 0.0
2018-Jun-22 13:31N 46°57' E 032°01'0 0.0
2018-Jun-22 13:00N 46°57' E 032°01'0 0.0
2018-Jun-22 12:31N 46°57' E 032°01'0 0.0
2018-Jun-22 12:00N 46°57' E 032°01'0 0.0
2018-Jun-22 11:31N 46°57' E 032°01'0 0.0
2018-Jun-22 11:00N 46°57' E 032°01'0 0.0
2018-Jun-22 10:31N 46°57' E 032°01'0 0.0
2018-Jun-22 10:01N 46°57' E 032°01'0 0.0
2018-Jun-22 09:31N 46°57' E 032°01'0 0.0
2018-Jun-22 09:01N 46°57' E 032°01'0 0.0
2018-Jun-22 08:31N 46°57' E 032°01'1 1.1
2018-Jun-22 08:01N 46°56' E 032°01'4 7.8
2018-Jun-22 07:31N 46°52' E 031°59'612.2
2018-Jun-22 07:01N 46°48' E 031°53'611.2
2018-Jun-22 06:30N 46°42' E 031°56'611.3
2018-Jun-22 06:01N 46°37' E 031°53'612.0
2018-Jun-22 05:30N 46°36' E 031°44'612.1
2018-Jun-22 05:00N 46°35' E 031°35'510.4
2018-Jun-22 04:31N 46°35' E 031°28'612.3
2018-Jun-22 04:00N 46°35' E 031°19'712.8
2018-Jun-22 03:29N 46°35' E 031°09'511.2
2018-Jun-22 03:00N 46°34' E 031°02'3 7.0
2018-Jun-22 02:30N 46°32' E 030°57'3 6.2
2018-Jun-22 02:00N 46°29' E 030°57'4 8.2
2018-Jun-22 01:30N 46°25' E 030°57'5 9.9
2018-Jun-22 01:01N 46°20' E 030°57'5 9.8
2018-Jun-22 00:31N 46°15' E 030°60'5 9.9
2018-Jun-22 00:01N 46°12' E 031°04'610.9
2018-Jun-21 23:25N 46°05' E 031°06'5613.0
2018-Jun-21 19:09N 45°12' E 030°44'213.0
2018-Jun-21 19:00N 45°10' E 030°43'613.1
2018-Jun-21 18:30N 45°04' E 030°41'713.0
2018-Jun-21 18:00N 44°58' E 030°39'613.0
2018-Jun-21 17:30N 44°51' E 030°36'612.9
2018-Jun-21 17:00N 44°45' E 030°34'713.1
2018-Jun-21 16:30N 44°39' E 030°31'713.1
2018-Jun-21 16:00N 44°33' E 030°29'612.9
2018-Jun-21 15:30N 44°26' E 030°26'713.0
2018-Jun-21 15:00N 44°20' E 030°23'713.0
2018-Jun-21 14:30N 44°14' E 030°21'712.9
2018-Jun-21 14:00N 44°08' E 030°18'1513.0
2018-Jun-21 12:52N 43°54' E 030°12'512.9
2018-Jun-21 12:30N 43°49' E 030°10'612.7
2018-Jun-21 12:00N 43°43' E 030°08'612.4
2018-Jun-21 11:30N 43°37' E 030°05'612.4
2018-Jun-21 11:00N 43°31' E 030°03'612.6
2018-Jun-21 10:30N 43°25' E 030°01'612.8
2018-Jun-21 10:00N 43°19' E 029°58'612.8
2018-Jun-21 09:30N 43°13' E 029°56'612.6
2018-Jun-21 09:00N 43°07' E 029°54'612.6
2018-Jun-21 08:30N 43°00' E 029°51'612.6
2018-Jun-21 08:00N 42°55' E 029°49'612.7
2018-Jun-21 07:30N 42°48' E 029°47'612.8
2018-Jun-21 07:00N 42°42' E 029°44'812.8
2018-Jun-21 06:24N 42°35' E 029°41'512.6
2018-Jun-21 06:00N 42°30' E 029°40'612.6
2018-Jun-21 05:30N 42°24' E 029°37'1812.6
2018-Jun-21 04:04N 42°07' E 029°31'212.7
2018-Jun-21 03:55N 42°05' E 029°30'  
Track history (hours):
 
Tides and Currents Weather Stations Pressure Air Temp Water Temp Dewpoint Dewpoint Depression Visibility Wind Speed Wind Dir Waves Ship Positions

Mohac

Last reported at 2018-Jun-24 13:54 UTC. Time now 2018-Jun-25 11:25 UTC.
Position N 46°14' E 030°56'.

Length 135 m; draft 8.8 m.

Type: Cargo ship. MMSI: 372105000.

Date/timePositionNaut miles runAvg speedWind from/ knotsBaromVisibWave heightAir tempDewpointWater temp
2018-Jun-24 13:54N 46°14' E 030°56'410.1
2018-Jun-24 13:28N 46°18' E 030°55'511.3
2018-Jun-24 13:00N 46°23' E 030°55'611.3
2018-Jun-24 12:30N 46°29' E 030°55'5 9.2
2018-Jun-24 12:00N 46°33' E 030°59'4 8.5
2018-Jun-24 11:30N 46°34' E 031°04'510.2
2018-Jun-24 11:00N 46°35' E 031°12'20 8.7
2018-Jun-24 08:39N 46°36' E 031°42'2 8.8
2018-Jun-24 08:28N 46°36' E 031°44'4 8.7
2018-Jun-24 08:00N 46°36' E 031°50'4 8.7
2018-Jun-24 07:30N 46°39' E 031°55'4 8.7
2018-Jun-24 07:00N 46°43' E 031°56'4 8.0
2018-Jun-24 06:30N 46°46' E 031°53'4 8.1
2018-Jun-24 06:00N 46°50' E 031°56'5 9.1
2018-Jun-24 05:30N 46°54' E 032°00'3 5.9
2018-Jun-24 05:00N 46°56' E 032°01'0 0.2
2018-Jun-24 04:30N 46°57' E 032°01'0 0.0
2018-Jun-24 03:58N 46°57' E 032°01'0 0.0
2018-Jun-24 03:28N 46°57' E 032°01'0 0.0
2018-Jun-24 02:58N 46°57' E 032°01'0 0.0
2018-Jun-24 02:28N 46°57' E 032°01'0 0.0
2018-Jun-24 01:58N 46°57' E 032°01'0 0.0
2018-Jun-24 01:28N 46°57' E 032°01'0 0.0
2018-Jun-24 00:58N 46°57' E 032°01'0 0.0
2018-Jun-24 00:31N 46°57' E 032°01'0 0.0
2018-Jun-23 23:59N 46°57' E 032°01'0 0.0
2018-Jun-23 23:29N 46°57' E 032°01'0 0.0
2018-Jun-23 22:59N 46°57' E 032°01'0 0.0
2018-Jun-23 22:29N 46°57' E 032°01'0 0.0
2018-Jun-23 21:59N 46°57' E 032°01'0 0.0
2018-Jun-23 21:29N 46°57' E 032°01'0 0.0
2018-Jun-23 20:59N 46°57' E 032°01'0 0.0
2018-Jun-23 20:29N 46°57' E 032°01'0 0.0
2018-Jun-23 19:59N 46°57' E 032°01'0 0.0
2018-Jun-23 19:23N 46°57' E 032°01'0 0.0
2018-Jun-23 18:59N 46°57' E 032°01'0 0.0
2018-Jun-23 18:29N 46°57' E 032°01'0 0.0
2018-Jun-23 17:59N 46°57' E 032°01'0 0.0
2018-Jun-23 17:23N 46°57' E 032°01'0 0.0
2018-Jun-23 16:59N 46°57' E 032°01'0 0.0
2018-Jun-23 16:29N 46°57' E 032°01'0 0.0
2018-Jun-23 15:59N 46°57' E 032°01'0 0.0
2018-Jun-23 15:29N 46°57' E 032°01'0 0.0
2018-Jun-23 14:59N 46°57' E 032°01'0 0.0
2018-Jun-23 14:29N 46°57' E 032°01'0 0.0
2018-Jun-23 13:59N 46°57' E 032°01'0 0.0
2018-Jun-23 13:29N 46°57' E 032°01'0 0.0
2018-Jun-23 12:59N 46°57' E 032°01'0 0.0
2018-Jun-23 12:29N 46°57' E 032°01'0 0.0
2018-Jun-23 11:59N 46°57' E 032°01'0 0.0
2018-Jun-23 11:29N 46°57' E 032°01'0 0.0
2018-Jun-23 10:59N 46°57' E 032°01'0 0.0
2018-Jun-23 10:29N 46°57' E 032°01'0 0.0
2018-Jun-23 09:59N 46°57' E 032°01'0 0.0
2018-Jun-23 09:29N 46°57' E 032°01'0 0.0
2018-Jun-23 08:59N 46°57' E 032°01'0 0.0
2018-Jun-23 08:29N 46°57' E 032°01'0 0.0
2018-Jun-23 07:59N 46°57' E 032°01'0 0.0
2018-Jun-23 07:29N 46°57' E 032°01'0 0.0
2018-Jun-23 06:59N 46°57' E 032°01'0 0.0
2018-Jun-23 06:29N 46°57' E 032°01'0 0.0
2018-Jun-23 05:59N 46°57' E 032°01'0 0.0
2018-Jun-23 05:29N 46°57' E 032°01'0 0.0
2018-Jun-23 04:59N 46°57' E 032°01'0 0.0
2018-Jun-23 04:31N 46°57' E 032°01'0 0.0
2018-Jun-23 03:58N 46°57' E 032°01'0 0.0
2018-Jun-23 03:28N 46°57' E 032°01'0 0.0
2018-Jun-23 03:00N 46°57' E 032°01'0 0.0
2018-Jun-23 02:30N 46°57' E 032°01'0 0.0
2018-Jun-23 02:00N 46°57' E 032°01'0 0.0
2018-Jun-23 01:30N 46°57' E 032°01'0 0.0
2018-Jun-23 01:00N 46°57' E 032°01'0 0.0
2018-Jun-23 00:30N 46°57' E 032°01'0 0.0
2018-Jun-23 00:00N 46°57' E 032°01'0 0.0
2018-Jun-22 23:31N 46°57' E 032°01'0 0.0
2018-Jun-22 23:00N 46°57' E 032°01'0 0.0
2018-Jun-22 22:29N 46°57' E 032°01'0 0.0
2018-Jun-22 21:59N 46°57' E 032°01'0 0.0
2018-Jun-22 21:29N 46°57' E 032°01'0 0.0
2018-Jun-22 20:58N 46°57' E 032°01'0 0.0
2018-Jun-22 20:28N 46°57' E 032°01'0 0.0
2018-Jun-22 19:59N 46°57' E 032°01'0 0.0
2018-Jun-22 19:28N 46°57' E 032°01'0 0.0
2018-Jun-22 19:00N 46°57' E 032°01'0 0.0
2018-Jun-22 18:30N 46°57' E 032°01'0 0.0
2018-Jun-22 18:00N 46°57' E 032°01'0 0.0
2018-Jun-22 17:30N 46°57' E 032°01'0 0.0
2018-Jun-22 17:01N 46°57' E 032°01'0 0.0
2018-Jun-22 16:29N 46°57' E 032°01'0 0.0
2018-Jun-22 15:59N 46°57' E 032°01'0 0.0
2018-Jun-22 15:29N 46°57' E 032°01'0 0.0
2018-Jun-22 14:59N 46°57' E 032°01'0 0.0
2018-Jun-22 14:28N 46°57' E 032°01'0 0.0
2018-Jun-22 13:59N 46°57' E 032°01'0 0.0
2018-Jun-22 13:31N 46°57' E 032°01'0 0.0
2018-Jun-22 13:00N 46°57' E 032°01'0 0.0
2018-Jun-22 12:31N 46°57' E 032°01'0 0.0
2018-Jun-22 12:00N 46°57' E 032°01'0 0.0
2018-Jun-22 11:31N 46°57' E 032°01'0 0.0
2018-Jun-22 11:00N 46°57' E 032°01'0 0.0
2018-Jun-22 10:31N 46°57' E 032°01'0 0.0
2018-Jun-22 10:01N 46°57' E 032°01'0 0.0
2018-Jun-22 09:31N 46°57' E 032°01'0 0.0
2018-Jun-22 09:01N 46°57' E 032°01'0 0.0
2018-Jun-22 08:31N 46°57' E 032°01'1 1.1
2018-Jun-22 08:01N 46°56' E 032°01'4 7.8
2018-Jun-22 07:31N 46°52' E 031°59'612.2
2018-Jun-22 07:01N 46°48' E 031°53'611.2
2018-Jun-22 06:30N 46°42' E 031°56'611.3
2018-Jun-22 06:01N 46°37' E 031°53'612.0
2018-Jun-22 05:30N 46°36' E 031°44'612.1
2018-Jun-22 05:00N 46°35' E 031°35'510.4
2018-Jun-22 04:31N 46°35' E 031°28'612.3
2018-Jun-22 04:00N 46°35' E 031°19'712.8
2018-Jun-22 03:29N 46°35' E 031°09'511.2
2018-Jun-22 03:00N 46°34' E 031°02'3 7.0
2018-Jun-22 02:30N 46°32' E 030°57'3 6.2
2018-Jun-22 02:00N 46°29' E 030°57'4 8.2
2018-Jun-22 01:30N 46°25' E 030°57'5 9.9
2018-Jun-22 01:01N 46°20' E 030°57'5 9.8
2018-Jun-22 00:31N 46°15' E 030°60'5 9.9
2018-Jun-22 00:01N 46°12' E 031°04'610.9
2018-Jun-21 23:25N 46°05' E 031°06'5613.0
2018-Jun-21 19:09N 45°12' E 030°44'213.0
2018-Jun-21 19:00N 45°10' E 030°43'613.1
2018-Jun-21 18:30N 45°04' E 030°41'713.0
2018-Jun-21 18:00N 44°58' E 030°39'613.0
2018-Jun-21 17:30N 44°51' E 030°36'612.9
2018-Jun-21 17:00N 44°45' E 030°34'713.1
2018-Jun-21 16:30N 44°39' E 030°31'713.1
2018-Jun-21 16:00N 44°33' E 030°29'612.9
2018-Jun-21 15:30N 44°26' E 030°26'713.0
2018-Jun-21 15:00N 44°20' E 030°23'713.0
2018-Jun-21 14:30N 44°14' E 030°21'712.9
2018-Jun-21 14:00N 44°08' E 030°18'1513.0
2018-Jun-21 12:52N 43°54' E 030°12'512.9
2018-Jun-21 12:30N 43°49' E 030°10'612.7
2018-Jun-21 12:00N 43°43' E 030°08'612.4
2018-Jun-21 11:30N 43°37' E 030°05'612.4
2018-Jun-21 11:00N 43°31' E 030°03'612.6
2018-Jun-21 10:30N 43°25' E 030°01'612.8
2018-Jun-21 10:00N 43°19' E 029°58'612.8
2018-Jun-21 09:30N 43°13' E 029°56'612.6
2018-Jun-21 09:00N 43°07' E 029°54'612.6
2018-Jun-21 08:30N 43°00' E 029°51'612.6
2018-Jun-21 08:00N 42°55' E 029°49'612.7
2018-Jun-21 07:30N 42°48' E 029°47'612.8
2018-Jun-21 07:00N 42°42' E 029°44'812.8
2018-Jun-21 06:24N 42°35' E 029°41'512.6
2018-Jun-21 06:00N 42°30' E 029°40'612.6
2018-Jun-21 05:30N 42°24' E 029°37'1812.6
2018-Jun-21 04:04N 42°07' E 029°31'212.7
2018-Jun-21 03:55N 42°05' E 029°30'  

Dump ship's entire track history